sensor_id;sensor_type;location;lat;lon;timestamp;P1;durP1;ratioP1;P2;durP2;ratioP2
3901;SDS011;1966;49.908;9.156;2023-05-07T00:04:18;3.70;;;3.40;;
3901;SDS011;1966;49.908;9.156;2023-05-07T00:09:19;3.63;;;3.30;;
3901;SDS011;1966;49.908;9.156;2023-05-07T00:14:19;3.53;;;3.20;;
3901;SDS011;1966;49.908;9.156;2023-05-07T00:19:18;3.70;;;3.13;;
3901;SDS011;1966;49.908;9.156;2023-05-07T00:24:19;3.90;;;3.60;;
3901;SDS011;1966;49.908;9.156;2023-05-07T00:29:18;4.87;;;4.37;;
3901;SDS011;1966;49.908;9.156;2023-05-07T00:34:18;6.53;;;5.13;;
3901;SDS011;1966;49.908;9.156;2023-05-07T00:39:17;6.63;;;4.93;;
3901;SDS011;1966;49.908;9.156;2023-05-07T00:44:18;6.43;;;5.50;;
3901;SDS011;1966;49.908;9.156;2023-05-07T00:49:17;5.10;;;4.30;;
3901;SDS011;1966;49.908;9.156;2023-05-07T00:54:17;3.63;;;3.33;;
3901;SDS011;1966;49.908;9.156;2023-05-07T00:59:18;3.87;;;3.40;;
3901;SDS011;1966;49.908;9.156;2023-05-07T01:04:18;3.67;;;3.37;;
3901;SDS011;1966;49.908;9.156;2023-05-07T01:09:17;5.93;;;3.30;;
3901;SDS011;1966;49.908;9.156;2023-05-07T01:14:17;3.50;;;3.20;;
3901;SDS011;1966;49.908;9.156;2023-05-07T01:19:18;3.63;;;3.30;;
3901;SDS011;1966;49.908;9.156;2023-05-07T01:24:19;3.30;;;3.00;;
3901;SDS011;1966;49.908;9.156;2023-05-07T01:29:18;3.73;;;3.40;;
3901;SDS011;1966;49.908;9.156;2023-05-07T01:34:17;3.83;;;3.50;;
3901;SDS011;1966;49.908;9.156;2023-05-07T01:39:19;5.03;;;4.27;;
3901;SDS011;1966;49.908;9.156;2023-05-07T01:44:19;4.97;;;4.27;;
3901;SDS011;1966;49.908;9.156;2023-05-07T01:49:18;5.33;;;4.80;;
3901;SDS011;1966;49.908;9.156;2023-05-07T01:54:19;5.60;;;5.00;;
3901;SDS011;1966;49.908;9.156;2023-05-07T01:59:25;9.03;;;5.80;;
3901;SDS011;1966;49.908;9.156;2023-05-07T02:04:24;8.17;;;4.80;;
3901;SDS011;1966;49.908;9.156;2023-05-07T02:09:25;7.33;;;4.83;;
3901;SDS011;1966;49.908;9.156;2023-05-07T02:14:24;6.20;;;5.40;;
3901;SDS011;1966;49.908;9.156;2023-05-07T02:19:24;10.20;;;5.77;;
3901;SDS011;1966;49.908;9.156;2023-05-07T02:24:23;7.77;;;6.10;;
3901;SDS011;1966;49.908;9.156;2023-05-07T02:29:23;7.33;;;6.47;;
3901;SDS011;1966;49.908;9.156;2023-05-07T02:34:23;7.30;;;6.20;;
3901;SDS011;1966;49.908;9.156;2023-05-07T02:39:22;8.30;;;6.30;;
3901;SDS011;1966;49.908;9.156;2023-05-07T02:44:21;7.30;;;6.40;;
3901;SDS011;1966;49.908;9.156;2023-05-07T02:49:22;8.00;;;6.50;;
3901;SDS011;1966;49.908;9.156;2023-05-07T02:54:21;9.33;;;6.80;;
3901;SDS011;1966;49.908;9.156;2023-05-07T02:59:20;7.30;;;6.30;;
3901;SDS011;1966;49.908;9.156;2023-05-07T03:04:21;10.10;;;7.63;;
3901;SDS011;1966;49.908;9.156;2023-05-07T03:09:20;9.87;;;7.73;;
3901;SDS011;1966;49.908;9.156;2023-05-07T03:14:19;9.37;;;6.67;;
3901;SDS011;1966;49.908;9.156;2023-05-07T03:19:19;9.63;;;6.60;;
3901;SDS011;1966;49.908;9.156;2023-05-07T03:24:20;8.00;;;6.33;;
3901;SDS011;1966;49.908;9.156;2023-05-07T03:29:19;6.80;;;6.00;;
3901;SDS011;1966;49.908;9.156;2023-05-07T03:34:18;10.00;;;6.33;;
3901;SDS011;1966;49.908;9.156;2023-05-07T03:39:21;9.83;;;6.17;;
3901;SDS011;1966;49.908;9.156;2023-05-07T03:44:20;8.07;;;6.93;;
3901;SDS011;1966;49.908;9.156;2023-05-07T03:49:20;8.73;;;6.03;;
3901;SDS011;1966;49.908;9.156;2023-05-07T03:54:20;6.23;;;5.10;;
3901;SDS011;1966;49.908;9.156;2023-05-07T03:59:19;4.73;;;4.20;;
3901;SDS011;1966;49.908;9.156;2023-05-07T04:04:19;5.80;;;5.20;;
3901;SDS011;1966;49.908;9.156;2023-05-07T04:09:20;5.83;;;5.20;;
3901;SDS011;1966;49.908;9.156;2023-05-07T04:14:19;5.70;;;4.73;;
3901;SDS011;1966;49.908;9.156;2023-05-07T04:19:19;7.13;;;5.27;;
3901;SDS011;1966;49.908;9.156;2023-05-07T04:24:18;4.20;;;3.80;;
3901;SDS011;1966;49.908;9.156;2023-05-07T04:29:20;7.50;;;4.20;;
3901;SDS011;1966;49.908;9.156;2023-05-07T04:34:19;5.70;;;4.70;;
3901;SDS011;1966;49.908;9.156;2023-05-07T04:39:19;7.90;;;5.33;;
3901;SDS011;1966;49.908;9.156;2023-05-07T04:44:19;6.70;;;5.53;;
3901;SDS011;1966;49.908;9.156;2023-05-07T04:49:19;7.33;;;6.30;;
3901;SDS011;1966;49.908;9.156;2023-05-07T04:54:18;11.10;;;5.87;;
3901;SDS011;1966;49.908;9.156;2023-05-07T04:59:17;6.23;;;5.50;;
3901;SDS011;1966;49.908;9.156;2023-05-07T05:04:18;9.47;;;5.50;;
3901;SDS011;1966;49.908;9.156;2023-05-07T05:09:17;5.67;;;5.17;;
3901;SDS011;1966;49.908;9.156;2023-05-07T05:14:16;7.73;;;4.60;;
3901;SDS011;1966;49.908;9.156;2023-05-07T05:19:17;6.60;;;4.37;;
3901;SDS011;1966;49.908;9.156;2023-05-07T05:24:16;5.70;;;5.00;;
3901;SDS011;1966;49.908;9.156;2023-05-07T05:29:16;5.90;;;5.30;;
3901;SDS011;1966;49.908;9.156;2023-05-07T05:34:15;5.60;;;4.97;;
3901;SDS011;1966;49.908;9.156;2023-05-07T05:39:16;5.20;;;4.70;;
3901;SDS011;1966;49.908;9.156;2023-05-07T05:44:15;5.37;;;4.43;;
3901;SDS011;1966;49.908;9.156;2023-05-07T05:49:15;5.27;;;4.50;;
3901;SDS011;1966;49.908;9.156;2023-05-07T05:54:14;5.17;;;4.70;;
3901;SDS011;1966;49.908;9.156;2023-05-07T05:59:15;4.33;;;4.00;;
3901;SDS011;1966;49.908;9.156;2023-05-07T06:04:14;4.70;;;4.10;;
3901;SDS011;1966;49.908;9.156;2023-05-07T06:09:14;6.03;;;4.40;;
3901;SDS011;1966;49.908;9.156;2023-05-07T06:14:13;5.10;;;4.60;;
3901;SDS011;1966;49.908;9.156;2023-05-07T06:19:13;5.00;;;4.60;;
3901;SDS011;1966;49.908;9.156;2023-05-07T06:24:16;5.30;;;4.73;;
3901;SDS011;1966;49.908;9.156;2023-05-07T06:29:15;6.13;;;4.83;;
3901;SDS011;1966;49.908;9.156;2023-05-07T06:34:15;4.70;;;4.30;;
3901;SDS011;1966;49.908;9.156;2023-05-07T06:39:15;5.17;;;4.67;;
3901;SDS011;1966;49.908;9.156;2023-05-07T06:44:14;4.20;;;3.90;;
3901;SDS011;1966;49.908;9.156;2023-05-07T06:49:14;4.60;;;4.20;;
3901;SDS011;1966;49.908;9.156;2023-05-07T06:54:14;4.53;;;4.13;;
3901;SDS011;1966;49.908;9.156;2023-05-07T06:59:14;4.50;;;4.10;;
3901;SDS011;1966;49.908;9.156;2023-05-07T07:04:13;4.47;;;4.07;;
3901;SDS011;1966;49.908;9.156;2023-05-07T07:09:12;4.40;;;4.00;;
3901;SDS011;1966;49.908;9.156;2023-05-07T07:14:13;5.00;;;4.60;;
3901;SDS011;1966;49.908;9.156;2023-05-07T07:19:12;4.57;;;4.17;;
3901;SDS011;1966;49.908;9.156;2023-05-07T07:24:13;4.97;;;3.80;;
3901;SDS011;1966;49.908;9.156;2023-05-07T07:29:19;4.90;;;4.00;;
3901;SDS011;1966;49.908;9.156;2023-05-07T07:34:18;4.80;;;4.40;;
3901;SDS011;1966;49.908;9.156;2023-05-07T07:39:18;5.27;;;4.37;;
3901;SDS011;1966;49.908;9.156;2023-05-07T07:44:18;7.50;;;4.03;;
3901;SDS011;1966;49.908;9.156;2023-05-07T07:49:18;5.40;;;4.60;;
3901;SDS011;1966;49.908;9.156;2023-05-07T07:54:17;6.57;;;4.00;;
3901;SDS011;1966;49.908;9.156;2023-05-07T07:59:16;4.60;;;4.20;;
3901;SDS011;1966;49.908;9.156;2023-05-07T08:04:18;4.90;;;4.23;;
3901;SDS011;1966;49.908;9.156;2023-05-07T08:09:17;7.33;;;4.53;;
3901;SDS011;1966;49.908;9.156;2023-05-07T08:14:16;4.77;;;4.30;;
3901;SDS011;1966;49.908;9.156;2023-05-07T08:19:17;4.77;;;4.37;;
3901;SDS011;1966;49.908;9.156;2023-05-07T08:24:16;6.13;;;4.80;;
3901;SDS011;1966;49.908;9.156;2023-05-07T08:29:16;5.47;;;4.37;;
3901;SDS011;1966;49.908;9.156;2023-05-07T08:34:15;4.47;;;4.17;;
3901;SDS011;1966;49.908;9.156;2023-05-07T08:39:16;4.53;;;4.13;;
3901;SDS011;1966;49.908;9.156;2023-05-07T08:44:15;4.33;;;3.93;;
3901;SDS011;1966;49.908;9.156;2023-05-07T08:49:16;5.17;;;4.67;;
3901;SDS011;1966;49.908;9.156;2023-05-07T08:54:17;5.13;;;4.63;;
3901;SDS011;1966;49.908;9.156;2023-05-07T08:59:17;5.23;;;4.73;;
3901;SDS011;1966;49.908;9.156;2023-05-07T09:04:17;4.73;;;4.33;;
3901;SDS011;1966;49.908;9.156;2023-05-07T09:09:17;4.77;;;4.00;;
3901;SDS011;1966;49.908;9.156;2023-05-07T09:14:17;5.60;;;4.70;;
3901;SDS011;1966;49.908;9.156;2023-05-07T09:19:22;4.50;;;4.20;;
3901;SDS011;1966;49.908;9.156;2023-05-07T09:24:23;5.40;;;4.90;;
3901;SDS011;1966;49.908;9.156;2023-05-07T09:29:22;4.47;;;4.00;;
3901;SDS011;1966;49.908;9.156;2023-05-07T09:34:21;4.37;;;3.97;;
3901;SDS011;1966;49.908;9.156;2023-05-07T09:39:22;5.67;;;4.90;;
3901;SDS011;1966;49.908;9.156;2023-05-07T09:44:21;4.97;;;4.57;;
3901;SDS011;1966;49.908;9.156;2023-05-07T09:49:22;4.90;;;4.50;;
3901;SDS011;1966;49.908;9.156;2023-05-07T09:54:24;5.20;;;4.57;;
3901;SDS011;1966;49.908;9.156;2023-05-07T09:59:23;5.30;;;4.90;;
3901;SDS011;1966;49.908;9.156;2023-05-07T10:04:23;4.10;;;3.80;;
3901;SDS011;1966;49.908;9.156;2023-05-07T10:09:25;4.87;;;4.30;;
3901;SDS011;1966;49.908;9.156;2023-05-07T10:14:24;4.70;;;4.30;;
3901;SDS011;1966;49.908;9.156;2023-05-07T10:19:24;4.50;;;4.20;;
3901;SDS011;1966;49.908;9.156;2023-05-07T10:24:26;6.10;;;4.80;;
3901;SDS011;1966;49.908;9.156;2023-05-07T10:29:29;5.00;;;4.50;;
3901;SDS011;1966;49.908;9.156;2023-05-07T10:34:32;5.17;;;4.77;;
3901;SDS011;1966;49.908;9.156;2023-05-07T10:39:34;5.63;;;3.90;;
3901;SDS011;1966;49.908;9.156;2023-05-07T10:44:33;4.37;;;3.97;;
3901;SDS011;1966;49.908;9.156;2023-05-07T10:49:33;6.47;;;5.37;;
3901;SDS011;1966;49.908;9.156;2023-05-07T10:54:32;3.60;;;3.30;;
3901;SDS011;1966;49.908;9.156;2023-05-07T10:59:34;3.20;;;2.90;;
3901;SDS011;1966;49.908;9.156;2023-05-07T11:04:39;2.80;;;2.60;;
3901;SDS011;1966;49.908;9.156;2023-05-07T11:09:55;4.67;;;4.23;;
3901;SDS011;1966;49.908;9.156;2023-05-07T11:14:57;4.07;;;3.77;;
3901;SDS011;1966;49.908;9.156;2023-05-07T11:19:57;3.97;;;3.67;;
3901;SDS011;1966;49.908;9.156;2023-05-07T11:24:56;3.50;;;3.30;;
3901;SDS011;1966;49.908;9.156;2023-05-07T11:29:56;3.53;;;3.23;;
3901;SDS011;1966;49.908;9.156;2023-05-07T11:34:58;2.60;;;2.43;;
3901;SDS011;1966;49.908;9.156;2023-05-07T11:40:04;3.17;;;2.80;;
3901;SDS011;1966;49.908;9.156;2023-05-07T11:45:04;3.63;;;3.33;;
3901;SDS011;1966;49.908;9.156;2023-05-07T11:50:06;3.07;;;2.87;;
3901;SDS011;1966;49.908;9.156;2023-05-07T11:55:06;3.33;;;3.03;;
3901;SDS011;1966;49.908;9.156;2023-05-07T12:00:06;2.77;;;2.57;;
3901;SDS011;1966;49.908;9.156;2023-05-07T12:05:07;2.30;;;2.20;;
3901;SDS011;1966;49.908;9.156;2023-05-07T12:10:07;3.17;;;2.73;;
3901;SDS011;1966;49.908;9.156;2023-05-07T12:15:06;2.43;;;2.33;;
3901;SDS011;1966;49.908;9.156;2023-05-07T12:20:08;3.05;;;2.55;;
3901;SDS011;1966;49.908;9.156;2023-05-07T12:25:07;2.60;;;2.40;;
3901;SDS011;1966;49.908;9.156;2023-05-07T12:30:09;2.88;;;2.67;;
3901;SDS011;1966;49.908;9.156;2023-05-07T12:35:10;6.07;;;2.40;;
3901;SDS011;1966;49.908;9.156;2023-05-07T12:40:09;2.58;;;2.40;;
3901;SDS011;1966;49.908;9.156;2023-05-07T12:45:09;2.30;;;2.08;;
3901;SDS011;1966;49.908;9.156;2023-05-07T12:50:10;2.00;;;1.90;;
3901;SDS011;1966;49.908;9.156;2023-05-07T12:55:11;3.38;;;2.22;;
3901;SDS011;1966;49.908;9.156;2023-05-07T13:00:11;2.30;;;2.10;;
3901;SDS011;1966;49.908;9.156;2023-05-07T13:05:12;2.47;;;2.28;;
3901;SDS011;1966;49.908;9.156;2023-05-07T13:10:12;2.58;;;2.38;;
3901;SDS011;1966;49.908;9.156;2023-05-07T13:15:11;2.17;;;1.98;;
3901;SDS011;1966;49.908;9.156;2023-05-07T13:20:10;2.30;;;2.20;;
3901;SDS011;1966;49.908;9.156;2023-05-07T13:25:12;2.17;;;2.08;;
3901;SDS011;1966;49.908;9.156;2023-05-07T13:30:11;1.95;;;1.85;;
3901;SDS011;1966;49.908;9.156;2023-05-07T13:35:10;2.60;;;1.90;;
3901;SDS011;1966;49.908;9.156;2023-05-07T13:40:11;3.15;;;2.03;;
3901;SDS011;1966;49.908;9.156;2023-05-07T13:45:10;2.05;;;1.95;;
3901;SDS011;1966;49.908;9.156;2023-05-07T13:50:12;2.50;;;2.28;;
3901;SDS011;1966;49.908;9.156;2023-05-07T13:55:13;2.40;;;2.22;;
3901;SDS011;1966;49.908;9.156;2023-05-07T14:00:13;2.13;;;2.03;;
3901;SDS011;1966;49.908;9.156;2023-05-07T14:05:14;2.47;;;2.28;;
3901;SDS011;1966;49.908;9.156;2023-05-07T14:10:14;4.10;;;2.35;;
3901;SDS011;1966;49.908;9.156;2023-05-07T14:15:14;4.30;;;2.60;;
3901;SDS011;1966;49.908;9.156;2023-05-07T14:20:14;2.90;;;2.50;;
3901;SDS011;1966;49.908;9.156;2023-05-07T14:25:14;6.20;;;2.50;;
3901;SDS011;1966;49.908;9.156;2023-05-07T14:30:13;2.67;;;2.47;;
3901;SDS011;1966;49.908;9.156;2023-05-07T14:35:13;2.93;;;2.73;;
3901;SDS011;1966;49.908;9.156;2023-05-07T14:40:12;2.30;;;2.20;;
3901;SDS011;1966;49.908;9.156;2023-05-07T14:45:14;2.40;;;2.20;;
3901;SDS011;1966;49.908;9.156;2023-05-07T14:50:13;2.60;;;2.40;;
3901;SDS011;1966;49.908;9.156;2023-05-07T14:55:12;3.23;;;2.60;;
3901;SDS011;1966;49.908;9.156;2023-05-07T15:00:12;3.10;;;2.90;;
3901;SDS011;1966;49.908;9.156;2023-05-07T15:05:13;3.10;;;2.90;;
3901;SDS011;1966;49.908;9.156;2023-05-07T15:10:12;3.70;;;3.40;;
3901;SDS011;1966;49.908;9.156;2023-05-07T15:15:12;4.40;;;3.60;;
3901;SDS011;1966;49.908;9.156;2023-05-07T15:20:12;4.00;;;3.60;;
3901;SDS011;1966;49.908;9.156;2023-05-07T15:25:12;4.40;;;3.80;;
3901;SDS011;1966;49.908;9.156;2023-05-07T15:30:12;4.47;;;3.73;;
3901;SDS011;1966;49.908;9.156;2023-05-07T15:35:13;3.77;;;3.43;;
3901;SDS011;1966;49.908;9.156;2023-05-07T15:40:12;3.93;;;3.63;;
3901;SDS011;1966;49.908;9.156;2023-05-07T15:45:12;4.27;;;3.97;;
3901;SDS011;1966;49.908;9.156;2023-05-07T15:50:11;4.37;;;3.97;;
3901;SDS011;1966;49.908;9.156;2023-05-07T15:55:12;4.47;;;4.07;;
3901;SDS011;1966;49.908;9.156;2023-05-07T16:00:12;4.53;;;4.10;;
3901;SDS011;1966;49.908;9.156;2023-05-07T16:05:13;4.33;;;4.03;;
3901;SDS011;1966;49.908;9.156;2023-05-07T16:10:14;4.67;;;4.27;;
3901;SDS011;1966;49.908;9.156;2023-05-07T16:15:13;4.40;;;4.10;;
3901;SDS011;1966;49.908;9.156;2023-05-07T16:20:13;5.17;;;4.30;;
3901;SDS011;1966;49.908;9.156;2023-05-07T16:25:12;5.00;;;4.50;;
3901;SDS011;1966;49.908;9.156;2023-05-07T16:30:13;6.13;;;4.37;;
3901;SDS011;1966;49.908;9.156;2023-05-07T16:35:13;5.20;;;4.20;;
3901;SDS011;1966;49.908;9.156;2023-05-07T16:40:12;5.20;;;4.13;;
3901;SDS011;1966;49.908;9.156;2023-05-07T16:45:11;5.53;;;4.63;;
3901;SDS011;1966;49.908;9.156;2023-05-07T16:50:12;4.53;;;4.13;;
3901;SDS011;1966;49.908;9.156;2023-05-07T16:55:11;4.57;;;4.13;;
3901;SDS011;1966;49.908;9.156;2023-05-07T17:00:11;5.10;;;4.60;;
3901;SDS011;1966;49.908;9.156;2023-05-07T17:05:12;4.73;;;4.33;;
3901;SDS011;1966;49.908;9.156;2023-05-07T17:10:11;4.20;;;3.80;;
3901;SDS011;1966;49.908;9.156;2023-05-07T17:15:10;3.60;;;3.30;;
3901;SDS011;1966;49.908;9.156;2023-05-07T17:20:12;3.93;;;3.60;;
3901;SDS011;1966;49.908;9.156;2023-05-07T17:25:11;4.00;;;3.60;;
3901;SDS011;1966;49.908;9.156;2023-05-07T17:30:11;3.70;;;3.40;;
3901;SDS011;1966;49.908;9.156;2023-05-07T17:35:11;3.13;;;2.93;;
3901;SDS011;1966;49.908;9.156;2023-05-07T17:40:11;3.80;;;2.70;;
3901;SDS011;1966;49.908;9.156;2023-05-07T17:45:10;3.60;;;3.00;;
3901;SDS011;1966;49.908;9.156;2023-05-07T17:50:11;3.50;;;3.20;;
3901;SDS011;1966;49.908;9.156;2023-05-07T17:55:11;4.50;;;3.40;;
3901;SDS011;1966;49.908;9.156;2023-05-07T18:00:10;7.13;;;4.30;;
3901;SDS011;1966;49.908;9.156;2023-05-07T18:05:11;3.53;;;3.13;;
3901;SDS011;1966;49.908;9.156;2023-05-07T18:10:10;3.23;;;2.93;;
3901;SDS011;1966;49.908;9.156;2023-05-07T18:15:13;3.00;;;2.80;;
3901;SDS011;1966;49.908;9.156;2023-05-07T18:20:13;2.87;;;2.67;;
3901;SDS011;1966;49.908;9.156;2023-05-07T18:25:13;3.00;;;2.80;;
3901;SDS011;1966;49.908;9.156;2023-05-07T18:30:12;2.73;;;2.50;;
3901;SDS011;1966;49.908;9.156;2023-05-07T18:35:12;3.23;;;2.93;;
3901;SDS011;1966;49.908;9.156;2023-05-07T18:40:12;3.17;;;2.97;;
3901;SDS011;1966;49.908;9.156;2023-05-07T18:45:12;2.90;;;2.63;;
3901;SDS011;1966;49.908;9.156;2023-05-07T18:50:11;2.60;;;2.40;;
3901;SDS011;1966;49.908;9.156;2023-05-07T18:55:12;2.57;;;2.37;;
3901;SDS011;1966;49.908;9.156;2023-05-07T19:00:13;2.63;;;2.43;;
3901;SDS011;1966;49.908;9.156;2023-05-07T19:05:12;2.80;;;2.60;;
3901;SDS011;1966;49.908;9.156;2023-05-07T19:10:13;3.03;;;2.73;;
3901;SDS011;1966;49.908;9.156;2023-05-07T19:15:12;3.80;;;3.10;;
3901;SDS011;1966;49.908;9.156;2023-05-07T19:20:12;2.93;;;2.73;;
3901;SDS011;1966;49.908;9.156;2023-05-07T19:25:12;3.40;;;3.10;;
3901;SDS011;1966;49.908;9.156;2023-05-07T19:30:12;2.87;;;2.67;;
3901;SDS011;1966;49.908;9.156;2023-05-07T19:35:11;3.80;;;3.33;;
3901;SDS011;1966;49.908;9.156;2023-05-07T19:40:10;3.63;;;3.00;;
3901;SDS011;1966;49.908;9.156;2023-05-07T19:45:13;3.67;;;3.30;;
3901;SDS011;1966;49.908;9.156;2023-05-07T19:50:12;3.20;;;2.90;;
3901;SDS011;1966;49.908;9.156;2023-05-07T19:55:11;4.00;;;3.17;;
3901;SDS011;1966;49.908;9.156;2023-05-07T20:00:12;3.50;;;3.20;;
3901;SDS011;1966;49.908;9.156;2023-05-07T20:05:12;3.17;;;2.87;;
3901;SDS011;1966;49.908;9.156;2023-05-07T20:10:11;3.20;;;3.00;;
3901;SDS011;1966;49.908;9.156;2023-05-07T20:15:10;4.37;;;3.50;;
3901;SDS011;1966;49.908;9.156;2023-05-07T20:20:11;3.70;;;3.27;;
3901;SDS011;1966;49.908;9.156;2023-05-07T20:25:11;3.50;;;3.20;;
3901;SDS011;1966;49.908;9.156;2023-05-07T20:30:12;3.50;;;3.20;;
3901;SDS011;1966;49.908;9.156;2023-05-07T20:35:12;3.50;;;3.20;;
3901;SDS011;1966;49.908;9.156;2023-05-07T20:40:12;3.60;;;3.30;;
3901;SDS011;1966;49.908;9.156;2023-05-07T20:45:11;3.57;;;3.07;;
3901;SDS011;1966;49.908;9.156;2023-05-07T20:50:12;3.70;;;3.30;;
3901;SDS011;1966;49.908;9.156;2023-05-07T20:55:11;3.43;;;3.13;;
3901;SDS011;1966;49.908;9.156;2023-05-07T21:00:11;3.83;;;3.53;;
3901;SDS011;1966;49.908;9.156;2023-05-07T21:05:10;4.70;;;4.17;;
3901;SDS011;1966;49.908;9.156;2023-05-07T21:10:11;4.33;;;3.97;;
3901;SDS011;1966;49.908;9.156;2023-05-07T21:15:10;4.00;;;3.70;;
3901;SDS011;1966;49.908;9.156;2023-05-07T21:20:09;3.60;;;3.30;;
3901;SDS011;1966;49.908;9.156;2023-05-07T21:25:09;4.97;;;4.57;;
3901;SDS011;1966;49.908;9.156;2023-05-07T21:30:10;4.60;;;4.30;;
3901;SDS011;1966;49.908;9.156;2023-05-07T21:35:09;4.87;;;4.47;;
3901;SDS011;1966;49.908;9.156;2023-05-07T21:40:09;5.43;;;4.10;;
3901;SDS011;1966;49.908;9.156;2023-05-07T21:45:10;4.20;;;3.90;;
3901;SDS011;1966;49.908;9.156;2023-05-07T21:50:10;3.90;;;3.60;;
3901;SDS011;1966;49.908;9.156;2023-05-07T21:55:10;3.83;;;3.53;;
3901;SDS011;1966;49.908;9.156;2023-05-07T22:00:11;3.80;;;3.50;;
3901;SDS011;1966;49.908;9.156;2023-05-07T22:05:10;4.60;;;4.20;;
3901;SDS011;1966;49.908;9.156;2023-05-07T22:10:10;5.67;;;3.70;;
3901;SDS011;1966;49.908;9.156;2023-05-07T22:15:11;5.37;;;4.73;;
3901;SDS011;1966;49.908;9.156;2023-05-07T22:20:10;4.03;;;3.73;;
3901;SDS011;1966;49.908;9.156;2023-05-07T22:25:09;4.20;;;3.90;;
3901;SDS011;1966;49.908;9.156;2023-05-07T22:30:10;4.53;;;3.90;;
3901;SDS011;1966;49.908;9.156;2023-05-07T22:35:09;4.83;;;4.40;;
3901;SDS011;1966;49.908;9.156;2023-05-07T22:40:09;4.53;;;4.20;;
3901;SDS011;1966;49.908;9.156;2023-05-07T22:45:09;4.50;;;4.10;;
3901;SDS011;1966;49.908;9.156;2023-05-07T22:50:10;5.30;;;4.77;;
3901;SDS011;1966;49.908;9.156;2023-05-07T22:55:09;5.87;;;4.27;;
3901;SDS011;1966;49.908;9.156;2023-05-07T23:00:09;5.27;;;4.77;;
3901;SDS011;1966;49.908;9.156;2023-05-07T23:05:10;6.67;;;5.53;;
3901;SDS011;1966;49.908;9.156;2023-05-07T23:10:09;5.43;;;4.93;;
3901;SDS011;1966;49.908;9.156;2023-05-07T23:15:09;6.07;;;5.47;;
3901;SDS011;1966;49.908;9.156;2023-05-07T23:20:10;6.43;;;5.80;;
3901;SDS011;1966;49.908;9.156;2023-05-07T23:25:10;5.17;;;4.70;;
3901;SDS011;1966;49.908;9.156;2023-05-07T23:30:09;4.90;;;4.50;;
3901;SDS011;1966;49.908;9.156;2023-05-07T23:35:10;5.00;;;4.60;;
3901;SDS011;1966;49.908;9.156;2023-05-07T23:40:10;5.90;;;4.90;;
3901;SDS011;1966;49.908;9.156;2023-05-07T23:45:09;6.23;;;4.90;;
3901;SDS011;1966;49.908;9.156;2023-05-07T23:50:09;5.27;;;4.77;;
3901;SDS011;1966;49.908;9.156;2023-05-07T23:55:09;5.90;;;4.73;;
